createdAt,value
2023-03-03T00:01:32.861Z,17.40
2023-03-03T00:04:00.188Z,17.20
2023-03-03T00:06:27.046Z,16.65
2023-03-03T00:08:54.008Z,17.25
2023-03-03T00:11:20.783Z,16.80
2023-03-03T00:13:51.004Z,17.25
2023-03-03T00:16:23.267Z,15.93
2023-03-03T00:18:50.929Z,16.30
2023-03-03T00:21:55.036Z,15.10
2023-03-03T00:24:37.749Z,16.17
2023-03-03T00:27:37.027Z,16.60
2023-03-03T00:30:04.320Z,15.32
2023-03-03T00:32:50.367Z,14.68
2023-03-03T00:35:30.873Z,14.48
2023-03-03T00:38:02.888Z,14.57
2023-03-03T00:40:36.450Z,14.52
2023-03-03T00:43:32.678Z,15.20
2023-03-03T00:45:59.714Z,14.77
2023-03-03T00:48:31.874Z,15.07
2023-03-03T00:51:01.008Z,15.45
2023-03-03T00:53:30.613Z,15.43
2023-03-03T00:55:57.718Z,15.65
2023-03-03T00:58:25.778Z,17.30
2023-03-03T01:00:54.793Z,15.07
2023-03-03T01:03:26.804Z,15.45
2023-03-03T01:05:54.705Z,16.63
2023-03-03T01:08:22.429Z,16.63
2023-03-03T01:10:53.553Z,17.63
2023-03-03T01:13:24.047Z,16.17
2023-03-03T01:15:51.353Z,16.70
2023-03-03T01:18:18.780Z,16.98
2023-03-03T01:20:45.704Z,16.33
2023-03-03T01:23:13.062Z,17.63
2023-03-03T01:25:39.963Z,18.67
2023-03-03T01:28:06.835Z,18.20
2023-03-03T01:30:33.696Z,18.25
2023-03-03T01:33:00.637Z,17.80
2023-03-03T01:35:27.763Z,18.35
2023-03-03T01:37:54.671Z,19.17
2023-03-03T01:40:27.499Z,19.40
2023-03-03T01:42:54.546Z,19.48
2023-03-03T01:45:27.988Z,19.75
2023-03-03T01:48:04.229Z,18.73
2023-03-03T01:50:33.264Z,18.23
2023-03-03T01:53:04.981Z,18.20
2023-03-03T01:55:39.360Z,18.50
2023-03-03T01:58:11.306Z,18.13
2023-03-03T02:00:41.501Z,17.98
2023-03-03T02:03:08.665Z,17.63
2023-03-03T02:05:36.471Z,19.02
2023-03-03T02:08:04.363Z,19.23
2023-03-03T02:10:35.923Z,19.55
2023-03-03T02:13:02.696Z,18.23
2023-03-03T02:15:37.836Z,18.67
2023-03-03T02:18:10.911Z,17.05
2023-03-03T02:20:41.536Z,18.65
2023-03-03T02:23:19.213Z,17.27
2023-03-03T02:25:58.815Z,17.88
2023-03-03T02:28:30.514Z,18.15
2023-03-03T02:31:01.385Z,18.40
2023-03-03T02:33:29.663Z,16.13
2023-03-03T02:35:56.676Z,16.67
2023-03-03T02:38:29.468Z,16.35
2023-03-03T02:41:16.734Z,17.67
2023-03-03T02:44:04.468Z,16.52
2023-03-03T02:46:35.490Z,17.50
2023-03-03T02:49:03.645Z,17.70
2023-03-03T02:51:30.872Z,16.98
2023-03-03T02:53:57.877Z,17.38
2023-03-03T02:56:27.271Z,16.70
2023-03-03T02:58:54.726Z,17.42
2023-03-03T03:01:22.148Z,16.77
2023-03-03T03:03:51.064Z,17.10
2023-03-03T03:06:20.716Z,16.67
2023-03-03T03:08:47.830Z,16.98
2023-03-03T03:11:14.842Z,16.63
2023-03-03T03:13:42.540Z,16.88
2023-03-03T03:16:10.324Z,16.23
2023-03-03T03:18:37.454Z,15.10
2023-03-03T03:21:09.936Z,17.77
2023-03-03T03:23:38.533Z,16.38
2023-03-03T03:26:06.582Z,16.73
2023-03-03T03:28:34.188Z,16.88
2023-03-03T03:31:05.054Z,17.08
2023-03-03T03:33:33.460Z,17.10
2023-03-03T03:36:00.925Z,16.27
2023-03-03T03:38:30.030Z,17.33
2023-03-03T03:40:57.496Z,16.73
2023-03-03T03:43:24.920Z,17.65
2023-03-03T03:45:52.283Z,17.50
2023-03-03T03:48:20.196Z,16.88
2023-03-03T03:50:50.020Z,17.23
2023-03-03T03:53:17.974Z,17.40
2023-03-03T03:55:46.614Z,17.77
2023-03-03T03:58:17.228Z,17.88
2023-03-03T04:00:48.582Z,17.58
2023-03-03T04:03:15.851Z,18.45
2023-03-03T04:05:44.809Z,18.88
2023-03-03T04:08:13.247Z,17.52
2023-03-03T04:10:41.611Z,18.27
2023-03-03T04:13:08.434Z,18.95
2023-03-03T04:15:36.058Z,17.95
2023-03-03T04:18:04.444Z,18.60
2023-03-03T04:20:31.449Z,18.50
2023-03-03T04:22:58.436Z,17.20
2023-03-03T04:25:26.256Z,16.73
2023-03-03T04:27:54.476Z,17.33
2023-03-03T04:30:23.032Z,17.05
2023-03-03T04:32:53.953Z,17.05
2023-03-03T04:35:24.257Z,16.98
2023-03-03T04:37:51.329Z,16.70
2023-03-03T04:40:18.606Z,17.88
2023-03-03T04:42:48.027Z,17.50
2023-03-03T04:45:14.970Z,17.10
2023-03-03T04:47:42.467Z,18.15
2023-03-03T04:50:11.929Z,17.75
2023-03-03T04:52:39.221Z,19.48
2023-03-03T04:55:10.387Z,20.23
2023-03-03T04:57:38.496Z,22.35
2023-03-03T05:00:06.828Z,21.58
2023-03-03T05:02:33.868Z,23.17
2023-03-03T05:05:01.229Z,22.55
2023-03-03T05:07:28.172Z,22.02
2023-03-03T05:09:55.135Z,23.77
2023-03-03T05:12:21.952Z,23.42
2023-03-03T05:14:48.925Z,23.63
2023-03-03T05:17:15.675Z,22.23
2023-03-03T05:19:42.768Z,21.70
2023-03-03T05:22:10.631Z,21.42
2023-03-03T05:24:37.408Z,21.20
2023-03-03T05:27:04.253Z,20.63
2023-03-03T05:29:31.813Z,20.60
2023-03-03T05:31:58.967Z,20.73
2023-03-03T05:34:26.859Z,20.77
2023-03-03T05:36:53.619Z,23.35
2023-03-03T05:39:20.529Z,25.73
2023-03-03T05:41:47.403Z,25.38
2023-03-03T05:44:14.343Z,25.98
2023-03-03T05:46:42.747Z,25.73
2023-03-03T05:49:09.711Z,26.65
2023-03-03T05:51:36.697Z,25.13
2023-03-03T05:54:03.627Z,22.35
2023-03-03T05:56:30.378Z,21.75
2023-03-03T05:58:57.310Z,24.40
2023-03-03T06:01:24.428Z,23.65
2023-03-03T06:03:51.343Z,25.70
2023-03-03T06:06:19.337Z,21.13
2023-03-03T06:08:46.237Z,19.58
2023-03-03T06:11:13.742Z,22.30
2023-03-03T06:13:42.736Z,22.48
2023-03-03T06:16:10.167Z,30.67
2023-03-03T06:18:37.326Z,33.08
2023-03-03T06:21:04.326Z,27.67
2023-03-03T06:23:31.325Z,29.27
2023-03-03T06:25:58.270Z,29.83
2023-03-03T06:28:25.513Z,31.40
2023-03-03T06:30:56.573Z,32.70
2023-03-03T06:33:23.867Z,31.38
2023-03-03T06:35:51.945Z,32.47
2023-03-03T06:38:19.560Z,32.25
2023-03-03T06:40:47.422Z,30.48
2023-03-03T06:43:14.469Z,26.70
2023-03-03T06:45:41.699Z,25.88
2023-03-03T06:48:08.453Z,24.67
2023-03-03T06:50:35.345Z,25.27
2023-03-03T06:53:15.382Z,25.95
2023-03-03T06:55:45.009Z,27.42
2023-03-03T06:58:17.682Z,27.45
2023-03-03T07:01:02.984Z,25.85
2023-03-03T07:03:32.751Z,25.63
2023-03-03T07:06:00.136Z,24.90
2023-03-03T07:08:31.404Z,20.92
2023-03-03T07:13:32.533Z,21.63
2023-03-03T07:16:01.390Z,22.05
2023-03-03T07:18:39.498Z,25.35
2023-03-03T07:21:16.627Z,20.98
2023-03-03T07:23:45.473Z,19.42
2023-03-03T07:26:14.623Z,19.02
2023-03-03T07:28:43.515Z,27.17
2023-03-03T07:31:37.276Z,19.70
2023-03-03T07:34:24.312Z,19.42
2023-03-03T07:36:55.424Z,16.52
2023-03-03T07:39:22.116Z,14.00
2023-03-03T07:41:49.023Z,13.95
2023-03-03T07:44:30.077Z,14.30
2023-03-03T07:46:56.890Z,16.52
2023-03-03T07:49:51.065Z,13.95
2023-03-03T07:52:27.371Z,13.40
2023-03-03T07:54:56.638Z,15.32
2023-03-03T07:57:37.428Z,16.33
2023-03-03T08:00:16.759Z,15.02
2023-03-03T08:03:02.774Z,16.23
2023-03-03T08:05:37.873Z,15.23
2023-03-03T08:08:11.038Z,15.23
2023-03-03T08:10:47.955Z,14.77
2023-03-03T08:13:22.702Z,17.02
2023-03-03T08:16:02.608Z,18.23
2023-03-03T08:18:36.354Z,17.05
2023-03-03T08:21:15.865Z,14.93
2023-03-03T08:23:42.774Z,15.05
2023-03-03T08:26:10.003Z,18.95
2023-03-03T08:28:36.993Z,15.57
2023-03-03T08:31:16.724Z,22.55
2023-03-03T08:33:47.529Z,17.23
2023-03-03T08:36:14.664Z,17.38
2023-03-03T08:38:42.682Z,16.60
2023-03-03T08:41:10.170Z,16.77
2023-03-03T08:43:37.142Z,16.83
2023-03-03T08:46:06.231Z,16.27
2023-03-03T08:48:33.667Z,16.98
2023-03-03T08:51:00.719Z,16.73
2023-03-03T08:53:28.154Z,17.75
2023-03-03T08:55:55.442Z,16.98
2023-03-03T08:58:33.551Z,20.85
2023-03-03T09:01:01.797Z,20.27
2023-03-03T09:03:28.742Z,18.95
2023-03-03T09:05:55.721Z,18.67
2023-03-03T09:08:22.604Z,19.48
2023-03-03T09:10:49.471Z,18.17
2023-03-03T09:13:19.683Z,18.23
2023-03-03T09:15:48.051Z,19.98
2023-03-03T09:18:22.791Z,18.73
2023-03-03T09:20:54.141Z,18.88
2023-03-03T09:26:22.580Z,17.48
2023-03-03T09:28:49.555Z,16.38
2023-03-03T09:31:31.920Z,18.15
2023-03-03T09:33:59.528Z,18.73
2023-03-03T09:36:36.603Z,17.65
2023-03-03T09:39:17.971Z,19.60
2023-03-03T09:42:12.730Z,19.40
2023-03-03T09:44:45.895Z,17.90
2023-03-03T09:47:54.071Z,18.00
2023-03-03T09:50:41.231Z,19.35
2023-03-03T09:53:54.285Z,17.73
2023-03-03T09:56:36.239Z,17.45
2023-03-03T09:59:10.475Z,17.80
2023-03-03T10:01:55.361Z,18.77
2023-03-03T10:04:25.040Z,18.95
2023-03-03T10:07:19.059Z,18.50
2023-03-03T10:10:04.011Z,17.98
2023-03-03T10:12:43.300Z,19.40
2023-03-03T10:15:41.229Z,19.20
2023-03-03T10:18:10.901Z,18.35
2023-03-03T10:20:58.755Z,19.35
2023-03-03T10:23:31.482Z,19.20
2023-03-03T10:26:08.414Z,20.33
2023-03-03T10:28:53.802Z,20.60
2023-03-03T10:31:29.177Z,22.17
2023-03-03T10:34:16.808Z,20.02
2023-03-03T10:36:59.374Z,20.90
2023-03-03T10:39:42.077Z,22.13
2023-03-03T10:42:21.014Z,20.77
2023-03-03T10:45:11.176Z,19.92
2023-03-03T10:48:10.361Z,20.45
2023-03-03T10:51:16.105Z,17.40
2023-03-03T10:53:49.171Z,17.55
2023-03-03T10:56:24.479Z,17.30
2023-03-03T10:59:08.513Z,17.48
2023-03-03T11:01:35.312Z,15.70
2023-03-03T11:04:50.340Z,15.38
2023-03-03T11:07:29.052Z,14.93
2023-03-03T11:10:33.800Z,16.30
2023-03-03T11:13:13.514Z,17.70
2023-03-03T11:15:58.646Z,16.42
2023-03-03T11:18:51.235Z,16.17
2023-03-03T11:21:17.994Z,16.27
2023-03-03T11:24:03.700Z,16.42
2023-03-03T11:27:03.548Z,14.75
2023-03-03T11:29:43.768Z,16.08
2023-03-03T11:32:19.363Z,16.50
2023-03-03T11:34:46.173Z,15.38
2023-03-03T11:37:29.185Z,16.52
2023-03-03T11:40:02.729Z,17.02
2023-03-03T11:43:01.516Z,15.85
2023-03-03T11:45:49.790Z,13.63
2023-03-03T11:48:42.938Z,14.10
2023-03-03T11:51:38.174Z,12.20
2023-03-03T11:54:40.190Z,14.73
2023-03-03T11:57:22.041Z,17.00
2023-03-03T12:00:20.571Z,22.05
2023-03-03T12:03:06.484Z,13.38
2023-03-03T12:05:54.289Z,18.05
2023-03-03T12:08:21.080Z,13.98
2023-03-03T12:10:54.514Z,16.10
2023-03-03T12:13:50.812Z,12.40
2023-03-03T12:16:17.686Z,12.10
2023-03-03T12:19:01.778Z,15.70
2023-03-03T12:21:47.128Z,14.93
2023-03-03T12:24:45.261Z,11.45
2023-03-03T12:27:23.916Z,11.88
2023-03-03T12:30:07.561Z,14.40
2023-03-03T12:32:53.308Z,15.25
2023-03-03T12:35:40.635Z,12.05
2023-03-03T12:38:19.524Z,11.93
2023-03-03T12:40:58.257Z,11.98
2023-03-03T12:43:34.930Z,11.65
2023-03-03T12:46:30.147Z,14.10
2023-03-03T12:48:56.965Z,14.82
2023-03-03T12:51:34.332Z,14.10
2023-03-03T12:54:27.329Z,12.88
2023-03-03T12:57:18.528Z,12.95
2023-03-03T13:00:07.123Z,14.50
2023-03-03T13:02:49.419Z,14.00
2023-03-03T13:05:22.373Z,13.98
2023-03-03T13:08:06.480Z,13.27
2023-03-03T13:10:46.099Z,13.50
2023-03-03T13:13:24.347Z,17.23
2023-03-03T13:16:06.443Z,16.02
2023-03-03T13:18:41.872Z,16.50
2023-03-03T13:21:35.042Z,18.60
2023-03-03T13:24:26.590Z,23.52
2023-03-03T13:29:30.528Z,22.73
2023-03-03T13:32:03.331Z,21.85
2023-03-03T13:35:14.709Z,22.23
2023-03-03T13:37:44.793Z,19.30
2023-03-03T13:40:14.694Z,22.98
2023-03-03T13:42:53.173Z,28.23
2023-03-03T13:45:36.914Z,28.40
2023-03-03T13:48:38.737Z,30.48
2023-03-03T13:54:03.252Z,29.40
2023-03-03T13:57:07.761Z,30.95
2023-03-03T13:59:59.323Z,32.47
2023-03-03T14:05:15.928Z,30.95
2023-03-03T14:08:03.229Z,26.45
2023-03-03T14:10:40.087Z,31.30
2023-03-03T14:13:11.579Z,30.23
2023-03-03T14:15:50.574Z,30.60
2023-03-03T14:18:34.535Z,29.33
2023-03-03T14:21:12.467Z,30.35
2023-03-03T14:23:59.380Z,32.17
2023-03-03T14:26:26.214Z,30.05
2023-03-03T14:29:13.065Z,28.17
2023-03-03T14:31:43.223Z,32.40
2023-03-03T14:34:27.420Z,33.25
2023-03-03T14:37:08.825Z,29.90
2023-03-03T14:42:14.446Z,27.52
2023-03-03T14:44:53.916Z,33.75
2023-03-03T14:47:27.092Z,34.75
2023-03-03T14:49:56.024Z,37.20
2023-03-03T14:52:26.742Z,33.75
2023-03-03T14:54:56.747Z,33.20
2023-03-03T14:57:37.642Z,36.05
2023-03-03T15:00:13.889Z,36.58
2023-03-03T15:03:16.108Z,36.05
2023-03-03T15:05:55.223Z,36.10
2023-03-03T15:08:33.120Z,42.35
2023-03-03T15:11:30.156Z,31.13
2023-03-03T15:14:18.676Z,31.70
2023-03-03T15:16:46.320Z,35.90
2023-03-03T15:19:24.901Z,39.53
2023-03-03T15:21:57.684Z,37.17
2023-03-03T15:24:53.919Z,35.42
2023-03-03T15:27:52.250Z,35.53
2023-03-03T15:30:33.693Z,33.67
2023-03-03T15:33:18.893Z,34.85
2023-03-03T15:36:12.199Z,37.10
2023-03-03T15:38:55.143Z,39.65
2023-03-03T15:41:57.866Z,39.70
2023-03-03T15:44:46.400Z,45.97
2023-03-03T15:47:36.489Z,58.33
2023-03-03T15:50:26.515Z,48.22
2023-03-03T15:53:14.835Z,46.85
2023-03-03T15:56:16.422Z,43.90
2023-03-03T15:58:52.322Z,55.83
2023-03-03T16:01:37.809Z,64.15
2023-03-03T16:04:06.135Z,45.83
2023-03-03T16:07:10.750Z,65.32
2023-03-03T16:10:18.695Z,64.72
2023-03-03T16:12:55.477Z,55.83
2023-03-03T16:15:43.347Z,61.20
2023-03-03T16:18:31.888Z,59.53
2023-03-03T16:21:04.368Z,57.05
2023-03-03T16:23:47.922Z,56.78
2023-03-03T16:26:35.049Z,53.22
2023-03-03T16:29:04.780Z,54.53
2023-03-03T16:31:46.082Z,53.13
2023-03-03T16:34:19.901Z,51.28
2023-03-03T16:37:14.936Z,53.55
2023-03-03T16:39:50.592Z,63.22
2023-03-03T16:42:35.601Z,63.70
2023-03-03T16:45:28.379Z,59.70
2023-03-03T16:47:58.585Z,55.40
2023-03-03T16:50:26.430Z,51.75
2023-03-03T16:53:24.032Z,48.25
2023-03-03T16:56:23.342Z,53.55
2023-03-03T16:59:25.620Z,47.03
2023-03-03T17:02:16.939Z,49.85
2023-03-03T17:04:51.384Z,47.42
2023-03-03T17:07:44.743Z,43.10
2023-03-03T17:10:30.566Z,36.85
2023-03-03T17:13:15.964Z,37.00
2023-03-03T17:15:58.030Z,38.03
2023-03-03T17:18:50.915Z,43.45
2023-03-03T17:21:28.044Z,43.25
2023-03-03T17:24:05.588Z,44.53
2023-03-03T17:27:01.224Z,48.90
2023-03-03T17:30:03.284Z,48.53
2023-03-03T17:32:43.774Z,45.35
2023-03-03T17:35:38.530Z,45.40
2023-03-03T17:38:20.620Z,40.40
2023-03-03T17:40:53.519Z,42.22
2023-03-03T17:43:34.733Z,41.78
2023-03-03T17:46:05.319Z,49.65
2023-03-03T17:49:11.561Z,49.95
2023-03-03T17:51:53.279Z,39.15
2023-03-03T17:54:38.743Z,38.47
2023-03-03T17:57:23.639Z,39.17
2023-03-03T18:00:19.352Z,41.70
2023-03-03T18:03:07.661Z,37.35
2023-03-03T18:05:37.505Z,35.97
2023-03-03T18:08:20.101Z,35.33
2023-03-03T18:11:02.875Z,35.53
2023-03-03T18:13:38.874Z,39.42
2023-03-03T18:16:48.982Z,40.35
2023-03-03T18:19:50.273Z,43.42
2023-03-03T18:22:33.311Z,45.03
2023-03-03T18:25:12.067Z,49.00
2023-03-03T18:27:41.124Z,51.92
2023-03-03T18:30:08.070Z,49.17
2023-03-03T18:32:58.818Z,48.42
2023-03-03T18:35:45.642Z,48.27
2023-03-03T18:38:15.548Z,52.92
2023-03-03T18:41:12.737Z,53.83
2023-03-03T18:43:45.628Z,49.88
2023-03-03T18:46:35.758Z,53.85
2023-03-03T18:49:04.697Z,45.70
2023-03-03T18:51:34.796Z,44.72
2023-03-03T18:54:07.125Z,55.80
2023-03-03T18:57:00.009Z,50.40
2023-03-03T18:59:36.519Z,48.33
2023-03-03T19:02:33.230Z,43.28
2023-03-03T19:05:20.206Z,41.72
2023-03-03T19:07:59.997Z,38.85
2023-03-03T19:10:50.021Z,39.67
2023-03-03T19:13:35.707Z,39.95
2023-03-03T19:16:25.299Z,45.40
2023-03-03T19:18:55.570Z,45.38
2023-03-03T19:21:33.305Z,42.03
2023-03-03T19:24:27.470Z,46.65
2023-03-03T19:27:13.228Z,44.92
2023-03-03T19:29:43.493Z,43.30
2023-03-03T19:32:35.399Z,40.97
2023-03-03T19:35:17.900Z,40.50
2023-03-03T19:38:09.739Z,40.72
2023-03-03T19:41:30.675Z,35.83
2023-03-03T19:44:42.372Z,41.47
2023-03-03T19:50:23.884Z,33.80
2023-03-03T19:53:02.035Z,38.30
2023-03-03T19:55:38.313Z,35.58
2023-03-03T19:58:11.560Z,35.63
2023-03-03T20:00:45.916Z,38.92
2023-03-03T20:03:54.721Z,40.60
2023-03-03T20:06:45.906Z,40.88
2023-03-03T20:09:24.877Z,36.70
2023-03-03T20:12:13.947Z,40.97
2023-03-03T20:14:59.336Z,39.88
2023-03-03T20:17:44.481Z,41.85
2023-03-03T20:20:50.079Z,43.33
2023-03-03T20:23:33.791Z,46.75
2023-03-03T20:26:12.885Z,44.67
2023-03-03T20:28:39.671Z,43.92
2023-03-03T20:31:10.732Z,44.42
2023-03-03T20:33:37.701Z,44.92
2023-03-03T20:36:24.681Z,45.30
2023-03-03T20:39:04.709Z,44.30
2023-03-03T20:41:45.368Z,44.10
2023-03-03T20:44:23.734Z,44.03
2023-03-03T20:46:58.683Z,44.75
2023-03-03T20:49:55.189Z,45.33
2023-03-03T20:52:40.163Z,46.92
2023-03-03T20:55:08.933Z,42.55
2023-03-03T20:58:01.921Z,44.65
2023-03-03T21:03:23.539Z,46.58
2023-03-03T21:06:04.247Z,43.88
2023-03-03T21:08:42.018Z,45.50
2023-03-03T21:11:09.722Z,42.33
2023-03-03T21:13:41.329Z,46.63
2023-03-03T21:16:35.896Z,44.75
2023-03-03T21:19:07.594Z,38.10
2023-03-03T21:21:38.290Z,40.00
2023-03-03T21:24:06.333Z,45.95
2023-03-03T21:26:59.162Z,41.50
2023-03-03T21:29:34.506Z,39.05
2023-03-03T21:32:09.844Z,38.63
2023-03-03T21:34:38.363Z,37.97
2023-03-03T21:37:13.913Z,37.25
2023-03-03T21:39:43.686Z,37.38
2023-03-03T21:42:16.886Z,37.90
2023-03-03T21:44:49.741Z,34.25
2023-03-03T21:47:17.730Z,35.30
2023-03-03T21:49:46.670Z,34.83
2023-03-03T21:52:16.541Z,36.72
2023-03-03T21:54:44.745Z,35.75
2023-03-03T21:57:11.911Z,33.72
2023-03-03T21:59:39.050Z,35.45
2023-03-03T22:02:07.096Z,33.72
2023-03-03T22:04:35.044Z,34.42
2023-03-03T22:07:02.043Z,35.03
2023-03-03T22:09:28.852Z,36.55
2023-03-03T22:11:55.723Z,33.55
2023-03-03T22:14:22.635Z,33.25
2023-03-03T22:16:49.430Z,35.25
2023-03-03T22:19:16.291Z,33.47
2023-03-03T22:21:43.197Z,35.88
2023-03-03T22:24:10.382Z,35.72
2023-03-03T22:26:37.246Z,35.15
2023-03-03T22:29:05.361Z,34.30
2023-03-03T22:31:33.581Z,35.28
2023-03-03T22:34:00.791Z,36.58
2023-03-03T22:36:27.769Z,35.15
2023-03-03T22:38:54.768Z,37.30
2023-03-03T22:41:21.631Z,36.65
2023-03-03T22:43:48.594Z,38.25
2023-03-03T22:46:15.629Z,38.42
2023-03-03T22:48:42.554Z,38.42
2023-03-03T22:51:09.306Z,37.10
2023-03-03T22:53:36.087Z,38.63
2023-03-03T22:56:03.003Z,35.28
2023-03-03T22:58:29.839Z,39.35
2023-03-03T23:00:57.110Z,41.08
2023-03-03T23:03:24.574Z,41.92
2023-03-03T23:05:52.146Z,43.92
2023-03-03T23:08:20.553Z,43.88
2023-03-03T23:10:48.332Z,46.65
2023-03-03T23:13:15.465Z,44.45
2023-03-03T23:15:42.768Z,47.10
2023-03-03T23:18:09.733Z,42.83
2023-03-03T23:20:36.825Z,42.17
2023-03-03T23:23:04.005Z,42.83
2023-03-03T23:25:30.897Z,38.83
2023-03-03T23:27:57.775Z,39.90
2023-03-03T23:30:25.010Z,41.70
2023-03-03T23:32:51.856Z,39.05
2023-03-03T23:35:19.871Z,35.95
2023-03-03T23:37:46.908Z,33.92
2023-03-03T23:40:16.335Z,33.08
2023-03-03T23:42:43.440Z,33.95
2023-03-03T23:45:11.753Z,34.95
2023-03-03T23:47:38.762Z,36.92
2023-03-03T23:50:06.158Z,36.97
2023-03-03T23:52:33.013Z,35.60
2023-03-03T23:54:59.949Z,34.95
2023-03-03T23:57:26.750Z,36.08
2023-03-03T23:59:53.548Z,36.95
